Time;durP1;ratioP1;P1;durP2;ratioP2;P2;SDS_P1;SDS_P2;PMS_P1;PMS_P2;Temp;Humidity;BMP_temperature;BMP_pressure;BME280_temperature;BME280_humidity;BME280_pressure;Samples;Min_cycle;Max_cycle;Signal;HPM_P1;HPM_P2
2023/02/24 00:01:38;;;;;;;35.97;12.20;;;7.60;99.90;;;;;;5019124;28;20827;-65
2023/02/24 00:04:08;;;;;;;29.90;11.63;;;7.60;99.90;;;;;;5018602;28;20915;-65
2023/02/24 00:06:37;;;;;;;30.27;11.77;;;7.60;99.90;;;;;;5018985;28;20441;-65
2023/02/24 00:09:07;;;;;;;38.57;11.60;;;7.60;99.90;;;;;;5018717;28;20584;-64
2023/02/24 00:11:35;;;;;;;39.50;12.80;;;7.70;99.90;;;;;;5019178;28;20824;-64
2023/02/24 00:14:05;;;;;;;49.67;11.77;;;7.70;99.90;;;;;;5018942;28;20977;-64
2023/02/24 00:16:32;;;;;;;23.37;11.83;;;7.70;99.90;;;;;;5018935;28;20516;-64
2023/02/24 00:19:00;;;;;;;30.93;12.10;;;7.70;99.90;;;;;;5017520;28;20473;-64
2023/02/24 00:21:28;;;;;;;25.67;8.90;;;7.70;99.90;;;;;;5017954;28;20482;-65
2023/02/24 00:23:58;;;;;;;28.93;11.10;;;7.70;99.90;;;;;;5018812;28;20867;-64
2023/02/24 00:26:30;;;;;;;30.20;11.80;;;7.70;99.90;;;;;;5018261;28;20445;-64
2023/02/24 00:28:59;;;;;;;22.57;9.00;;;7.70;99.90;;;;;;5018580;28;20484;-64
2023/02/24 00:31:29;;;;;;;31.97;11.33;;;7.60;99.90;;;;;;5018603;28;20473;-64
2023/02/24 00:33:57;;;;;;;43.93;14.37;;;7.70;99.90;;;;;;5018947;28;20457;-64
2023/02/24 00:36:25;;;;;;;23.23;9.87;;;7.60;99.90;;;;;;5018710;28;20488;-64
2023/02/24 00:38:55;;;;;;;25.97;11.77;;;7.60;99.90;;;;;;5017945;28;20469;-66
2023/02/24 00:41:24;;;;;;;26.30;10.17;;;7.60;99.90;;;;;;5018202;28;20837;-64
2023/02/24 00:43:57;;;;;;;25.53;10.20;;;7.60;99.90;;;;;;5001230;28;20511;-64
2023/02/24 00:46:30;;;;;;;27.23;9.13;;;7.70;99.90;;;;;;5017781;28;20511;-64
2023/02/24 00:49:04;;;;;;;28.33;8.97;;;7.60;99.90;;;;;;5017869;28;20834;-66
2023/02/24 00:51:36;;;;;;;17.37;8.47;;;7.60;99.90;;;;;;5018574;28;20445;-64
2023/02/24 00:54:05;;;;;;;22.70;6.63;;;7.50;99.90;;;;;;5017097;28;20499;-65
2023/02/24 00:56:33;;;;;;;15.57;6.70;;;7.50;99.90;;;;;;5018322;28;20476;-64
2023/02/24 00:59:04;;;;;;;13.07;5.00;;;7.50;99.90;;;;;;5017614;28;20523;-65
2023/02/24 01:01:35;;;;;;;20.87;5.93;;;7.40;99.90;;;;;;5018297;28;20877;-64
2023/02/24 01:04:09;;;;;;;18.37;5.63;;;7.20;99.90;;;;;;5019030;28;20436;-65
2023/02/24 01:06:38;;;;;;;14.00;6.70;;;7.10;99.90;;;;;;5018901;28;20840;-64
2023/02/24 01:09:08;;;;;;;14.90;5.70;;;7.00;99.90;;;;;;5018968;28;20499;-65
2023/02/24 01:14:24;;;;;;;16.67;6.50;;;6.80;99.90;;;;;;5018784;28;20792;-65
2023/02/24 01:16:52;;;;;;;21.47;6.50;;;6.70;99.90;;;;;;5018324;28;20469;-64
2023/02/24 01:19:21;;;;;;;18.23;5.20;;;6.60;99.90;;;;;;5000629;28;20536;-65
2023/02/24 01:21:53;;;;;;;12.83;5.37;;;6.60;99.90;;;;;;5018139;28;20473;-64
2023/02/24 01:24:22;;;;;;;14.00;6.57;;;6.60;99.90;;;;;;5018274;28;20536;-65
2023/02/24 01:26:49;;;;;;;6.07;2.67;;;6.60;99.90;;;;;;5018256;28;20445;-65
2023/02/24 01:29:16;;;;;;;10.00;3.60;;;6.50;99.90;;;;;;5019150;28;20795;-65
2023/02/24 01:31:49;;;;;;;10.33;3.50;;;6.40;99.90;;;;;;5019323;28;20453;-65
2023/02/24 01:34:16;;;;;;;17.80;3.20;;;6.30;99.90;;;;;;5019465;28;20457;-63
2023/02/24 01:36:44;;;;;;;9.10;3.37;;;6.30;99.90;;;;;;5018828;28;20489;-63
2023/02/24 01:39:15;;;;;;;9.93;3.70;;;6.40;99.90;;;;;;5017936;28;20496;-65
2023/02/24 01:41:43;;;;;;;14.03;2.77;;;6.40;99.90;;;;;;5017581;28;20857;-65
2023/02/24 01:44:46;;;;;;;8.07;3.20;;;6.40;99.90;;;;;;5017453;28;20475;-65
2023/02/24 01:47:19;;;;;;;7.10;2.70;;;6.40;99.90;;;;;;4988223;28;20471;-64
2023/02/24 01:49:49;;;;;;;20.87;3.10;;;6.40;99.90;;;;;;5015986;28;20492;-65
2023/02/24 01:52:20;;;;;;;9.73;3.13;;;6.40;99.90;;;;;;5000010;28;20832;-64
2023/02/24 01:54:53;;;;;;;13.13;2.70;;;6.40;99.90;;;;;;5017300;28;20445;-65
2023/02/24 01:57:23;;;;;;;10.50;2.57;;;6.20;99.90;;;;;;5017854;28;20460;-64
2023/02/24 01:59:53;;;;;;;11.23;4.00;;;6.20;99.90;;;;;;5018325;28;20555;-65
2023/02/24 02:02:23;;;;;;;9.53;2.20;;;6.20;99.90;;;;;;5018921;28;20468;-64
2023/02/24 02:04:55;;;;;;;6.17;2.27;;;6.10;99.90;;;;;;5016610;28;20447;-64
2023/02/24 02:07:25;;;;;;;12.33;2.67;;;6.10;99.90;;;;;;5017774;28;20540;-64
2023/02/24 02:09:53;;;;;;;3.83;1.80;;;6.00;99.90;;;;;;5018516;28;20449;-64
2023/02/24 02:12:21;;;;;;;7.20;2.20;;;5.90;99.90;;;;;;5019361;28;20856;-64
2023/02/24 02:14:52;;;;;;;7.00;2.20;;;5.80;99.90;;;;;;5018910;28;20454;-65
2023/02/24 02:17:29;;;;;;;6.27;1.77;;;5.80;99.90;;;;;;5019389;28;20445;-64
2023/02/24 02:20:16;;;;;;;7.43;2.80;;;5.80;99.90;;;;;;5020577;28;20440;-65
2023/02/24 02:23:12;;;;;;;5.40;1.93;;;5.70;99.90;;;;;;5020457;28;20473;-64
2023/02/24 02:25:57;;;;;;;9.70;2.10;;;5.50;99.90;;;;;;5020298;28;20467;-63
2023/02/24 02:29:02;;;;;;;9.70;2.33;;;5.50;99.90;;;;;;5019894;28;20515;-65
2023/02/24 02:31:57;;;;;;;9.70;2.30;;;5.40;99.90;;;;;;5006302;28;20488;-64
2023/02/24 02:34:44;;;;;;;4.60;2.07;;;5.30;99.90;;;;;;5021960;28;20483;-63
2023/02/24 02:37:14;;;;;;;13.10;2.33;;;5.30;99.90;;;;;;5023542;28;20503;-65
2023/02/24 02:39:49;;;;;;;11.73;2.13;;;5.30;99.90;;;;;;5025914;28;20441;-64
2023/02/24 02:42:27;;;;;;;3.90;2.40;;;5.30;99.90;;;;;;5027426;28;20445;-63
2023/02/24 02:45:04;;;;;;;3.80;1.13;;;5.20;99.90;;;;;;5028606;28;20469;-65
2023/02/24 02:47:40;;;;;;;2.87;1.67;;;5.10;99.90;;;;;;5030055;28;20464;-64
2023/02/24 02:50:17;;;;;;;10.70;2.23;;;5.10;99.90;;;;;;5012297;28;20473;-64
2023/02/24 02:52:54;;;;;;;11.03;2.97;;;5.10;99.90;;;;;;5029660;28;20425;-64
2023/02/24 02:55:26;;;;;;;3.47;1.37;;;5.00;99.90;;;;;;5029161;28;21250;-64
2023/02/24 02:57:58;;;;;;;3.70;2.03;;;5.10;99.90;;;;;;5029948;28;20465;-63
2023/02/24 03:00:28;;;;;;;5.47;1.97;;;5.10;99.90;;;;;;5031953;28;20441;-65
2023/02/24 03:03:02;;;;;;;3.43;1.70;;;4.90;99.90;;;;;;5031894;28;20445;-65
2023/02/24 03:05:42;;;;;;;8.77;1.50;;;4.90;99.90;;;;;;5032223;28;20437;-64
2023/02/24 03:08:18;;;;;;;14.37;1.70;;;4.90;99.90;;;;;;5033283;28;20448;-65
2023/02/24 03:10:49;;;;;;;2.03;1.10;;;4.90;99.90;;;;;;5033953;28;20456;-65
2023/02/24 03:13:21;;;;;;;8.80;2.40;;;4.90;99.90;;;;;;5033370;28;20430;-65
2023/02/24 03:15:52;;;;;;;7.40;2.13;;;4.90;99.90;;;;;;5034068;28;20465;-65
2023/02/24 03:18:27;;;;;;;17.33;2.67;;;4.90;99.90;;;;;;5020184;28;20462;-65
2023/02/24 03:21:05;;;;;;;3.90;1.53;;;4.90;99.90;;;;;;5036867;28;20500;-64
2023/02/24 03:23:35;;;;;;;4.70;1.70;;;5.00;99.90;;;;;;5038295;28;20513;-65
2023/02/24 03:26:15;;;;;;;3.03;1.40;;;5.00;99.90;;;;;;5039207;28;20425;-64
2023/02/24 03:28:53;;;;;;;12.93;1.60;;;4.90;99.90;;;;;;5039175;28;20484;-65
2023/02/24 03:31:27;;;;;;;9.73;2.50;;;4.80;99.90;;;;;;5039294;28;20473;-63
2023/02/24 03:34:02;;;;;;;9.27;2.40;;;4.70;99.90;;;;;;5021386;28;20512;-63
2023/02/24 03:36:31;;;;;;;4.00;1.40;;;4.80;99.90;;;;;;5038193;28;20475;-64
2023/02/24 03:39:04;;;;;;;8.30;1.17;;;4.80;99.90;;;;;;5038137;28;20471;-64
2023/02/24 03:41:40;;;;;;;3.23;1.60;;;4.80;99.90;;;;;;5038766;28;20432;-64
2023/02/24 03:44:09;;;;;;;3.87;1.17;;;4.80;99.90;;;;;;5038862;28;20420;-64
2023/02/24 03:46:37;;;;;;;10.83;1.60;;;4.90;99.90;;;;;;5039144;28;20441;-65
2023/02/24 03:49:15;;;;;;;11.90;2.37;;;4.80;99.90;;;;;;5038899;28;20532;-64
2023/02/24 03:51:58;;;;;;;11.43;1.63;;;4.80;99.90;;;;;;5022386;28;20489;-64
2023/02/24 03:54:43;;;;;;;6.70;1.30;;;4.70;99.90;;;;;;5039370;28;20508;-65
2023/02/24 03:57:25;;;;;;;7.93;2.77;;;4.70;99.90;;;;;;5038838;28;20539;-64
2023/02/24 04:00:24;;;;;;;8.00;2.20;;;4.60;99.90;;;;;;5039133;28;20468;-65
2023/02/24 04:03:06;;;;;;;6.80;2.20;;;4.60;99.90;;;;;;5039583;28;20469;-64
2023/02/24 04:05:46;;;;;;;14.20;1.93;;;4.70;99.90;;;;;;5038920;28;20436;-64
2023/02/24 04:10:52;;;;;;;4.00;1.30;;;4.60;99.90;;;;;;5076997;28;20464;-61
2023/02/24 04:13:30;;;;;;;15.40;2.57;;;4.70;99.90;;;;;;5078838;28;20434;-63
2023/02/24 04:16:02;;;;;;;8.20;1.90;;;4.70;99.90;;;;;;5079372;28;20530;-62
2023/02/24 04:18:32;;;;;;;3.80;1.20;;;4.60;99.90;;;;;;5079195;28;20411;-62
2023/02/24 04:21:02;;;;;;;6.37;1.77;;;4.60;99.90;;;;;;5078969;28;20439;-62
2023/02/24 04:23:32;;;;;;;4.93;2.00;;;4.60;99.90;;;;;;5078762;28;20453;-64
2023/02/24 04:26:02;;;;;;;4.33;1.83;;;4.60;99.90;;;;;;5078125;28;20440;-62
2023/02/24 04:28:30;;;;;;;10.03;2.17;;;4.60;99.90;;;;;;5079025;28;20538;-61
2023/02/24 04:31:04;;;;;;;8.67;3.20;;;4.60;99.90;;;;;;5079430;28;20458;-63
2023/02/24 04:33:34;;;;;;;5.80;2.20;;;4.60;99.90;;;;;;5079298;28;21240;-60
2023/02/24 04:36:01;;;;;;;6.60;2.67;;;4.70;99.90;;;;;;5078926;28;20509;-61
2023/02/24 04:38:35;;;;;;;11.60;2.17;;;4.60;99.90;;;;;;5077747;28;20455;-64
2023/02/24 04:41:04;;;;;;;3.40;1.70;;;4.60;99.90;;;;;;5077051;28;21028;-62
2023/02/24 04:43:34;;;;;;;17.57;2.70;;;4.70;99.90;;;;;;5076248;28;20438;-63
2023/02/24 04:46:06;;;;;;;5.93;1.70;;;4.70;99.90;;;;;;5077261;28;20443;-64
2023/02/24 04:48:33;;;;;;;13.73;2.70;;;4.70;99.90;;;;;;5076106;28;20494;-61
2023/02/24 04:51:01;;;;;;;5.03;1.23;;;4.60;99.90;;;;;;5075959;28;20439;-64
2023/02/24 04:53:29;;;;;;;2.40;1.60;;;4.60;99.90;;;;;;5075114;28;20451;-63
2023/02/24 04:56:07;;;;;;;1.40;1.30;;;4.60;99.90;;;;;;5075701;28;20435;-63
2023/02/24 04:58:35;;;;;;;7.10;1.70;;;4.50;99.90;;;;;;5076260;28;20464;-63
2023/02/24 05:01:09;;;;;;;8.33;1.63;;;4.50;99.90;;;;;;5076376;28;20439;-61
2023/02/24 05:03:36;;;;;;;6.37;1.50;;;4.50;99.90;;;;;;5076746;28;20471;-61
2023/02/24 05:06:05;;;;;;;6.03;1.67;;;4.50;99.90;;;;;;5076584;28;20419;-63
2023/02/24 05:08:33;;;;;;;4.80;1.10;;;4.50;99.90;;;;;;5076437;28;20457;-62
2023/02/24 05:11:02;;;;;;;9.70;1.90;;;4.50;99.90;;;;;;5077103;28;20471;-63
2023/02/24 05:13:32;;;;;;;6.07;1.50;;;4.40;99.90;;;;;;5076962;28;20427;-62
2023/02/24 05:16:04;;;;;;;4.43;1.90;;;4.50;99.90;;;;;;5076604;28;20489;-61
2023/02/24 05:18:35;;;;;;;6.53;2.33;;;4.50;99.90;;;;;;5076052;28;20416;-63
2023/02/24 05:23:53;;;;;;;8.80;1.40;;;4.50;99.90;;;;;;5076144;28;20407;-63
2023/02/24 05:26:24;;;;;;;11.20;1.97;;;4.50;99.90;;;;;;5075702;28;20436;-64
2023/02/24 05:28:55;;;;;;;1.97;1.50;;;4.50;99.90;;;;;;5075540;28;20449;-64
2023/02/24 05:31:24;;;;;;;3.30;1.20;;;4.60;99.90;;;;;;5075977;28;20491;-66
2023/02/24 05:33:54;;;;;;;13.60;2.73;;;4.50;99.90;;;;;;5075293;28;20442;-62
2023/02/24 05:36:22;;;;;;;3.10;1.37;;;4.50;99.90;;;;;;5075554;28;20476;-63
2023/02/24 05:38:54;;;;;;;6.37;2.30;;;4.50;99.90;;;;;;5075641;28;20440;-63
2023/02/24 05:41:22;;;;;;;6.90;1.63;;;4.50;99.90;;;;;;5076577;28;20475;-62
2023/02/24 05:43:53;;;;;;;2.47;1.30;;;4.50;99.90;;;;;;5075205;28;20459;-64
2023/02/24 05:46:27;;;;;;;3.07;1.80;;;4.50;99.90;;;;;;5075273;28;20426;-63
2023/02/24 05:48:56;;;;;;;3.73;1.50;;;4.40;99.90;;;;;;5074185;28;20475;-63
2023/02/24 05:51:23;;;;;;;7.97;1.43;;;4.40;99.90;;;;;;5074971;28;20438;-63
2023/02/24 05:53:54;;;;;;;3.00;1.40;;;4.40;99.90;;;;;;5075091;28;20459;-59
2023/02/24 05:56:22;;;;;;;4.30;1.37;;;4.40;99.90;;;;;;5075804;28;20467;-63
2023/02/24 05:58:49;;;;;;;14.93;1.60;;;4.50;99.90;;;;;;5075386;28;20451;-64
2023/02/24 06:01:18;;;;;;;3.77;1.20;;;4.50;99.90;;;;;;5074973;28;20439;-64
2023/02/24 06:03:50;;;;;;;4.50;0.80;;;4.60;99.90;;;;;;5074609;28;20439;-64
2023/02/24 06:06:20;;;;;;;1.07;0.87;;;4.60;99.90;;;;;;5074047;28;20446;-64
2023/02/24 06:08:49;;;;;;;1.80;1.13;;;4.50;99.90;;;;;;5074308;28;20447;-62
2023/02/24 06:11:17;;;;;;;1.07;0.77;;;4.50;99.90;;;;;;5074787;28;20796;-64
2023/02/24 06:13:47;;;;;;;4.00;1.67;;;4.50;99.90;;;;;;5075904;28;20462;-66
2023/02/24 06:16:15;;;;;;;1.00;0.70;;;4.40;99.90;;;;;;5075818;28;20510;-63
2023/02/24 06:18:42;;;;;;;1.20;1.10;;;4.40;99.90;;;;;;5076872;28;20459;-64
2023/02/24 06:21:12;;;;;;;7.60;1.10;;;4.40;99.90;;;;;;5076194;28;20471;-63
2023/02/24 06:23:39;;;;;;;6.03;1.93;;;4.40;99.90;;;;;;5075542;28;20443;-63
2023/02/24 06:26:11;;;;;;;2.00;1.00;;;4.40;99.90;;;;;;5074603;28;20474;-62
2023/02/24 06:28:42;;;;;;;10.07;1.83;;;4.50;99.90;;;;;;5074079;28;20412;-63
2023/02/24 06:31:09;;;;;;;3.90;2.57;;;4.40;99.90;;;;;;5075172;28;20481;-63
2023/02/24 06:33:37;;;;;;;2.40;0.90;;;4.50;99.90;;;;;;5074429;28;20510;-63
2023/02/24 06:36:05;;;;;;;3.17;1.27;;;4.50;99.90;;;;;;5074921;28;20438;-64
2023/02/24 06:38:35;;;;;;;2.10;1.30;;;4.40;99.90;;;;;;5074244;28;20491;-63
2023/02/24 06:41:03;;;;;;;9.13;1.87;;;4.40;99.90;;;;;;5075485;28;20473;-59
2023/02/24 06:43:29;;;;;;;3.27;1.90;;;4.40;99.90;;;;;;5075296;28;20461;-63
2023/02/24 06:45:56;;;;;;;7.27;1.57;;;4.40;99.90;;;;;;5074784;28;20474;-63
2023/02/24 06:48:23;;;;;;;6.97;1.60;;;4.40;99.90;;;;;;5079871;28;20486;-63
2023/02/24 06:50:50;;;;;;;11.30;1.80;;;4.50;99.90;;;;;;5086317;28;20467;-63
2023/02/24 06:53:17;;;;;;;1.30;0.90;;;4.40;99.90;;;;;;5078303;28;20443;-62
2023/02/24 06:55:47;;;;;;;2.47;1.30;;;4.50;99.90;;;;;;5079261;28;20498;-64
2023/02/24 06:58:17;;;;;;;1.57;1.07;;;4.50;99.90;;;;;;5082899;28;20502;-60
2023/02/24 07:00:55;;;;;;;11.20;1.63;;;4.50;99.90;;;;;;5078505;28;20509;-60
2023/02/24 07:03:37;;;;;;;3.60;1.50;;;4.50;99.90;;;;;;5072348;28;20448;-63
2023/02/24 07:06:19;;;;;;;1.37;0.93;;;4.60;99.90;;;;;;5077231;28;20513;-64
2023/02/24 07:08:46;;;;;;;4.30;1.17;;;4.50;99.90;;;;;;5078733;28;20446;-63
2023/02/24 07:11:17;;;;;;;3.37;1.50;;;4.50;99.90;;;;;;5079329;28;20730;-65
2023/02/24 07:13:48;;;;;;;2.03;1.03;;;4.50;99.90;;;;;;5089353;28;20451;-65
2023/02/24 07:16:16;;;;;;;3.03;0.80;;;4.50;99.90;;;;;;5079028;28;20447;-65
2023/02/24 07:18:49;;;;;;;3.80;0.93;;;4.50;99.90;;;;;;5080976;28;20476;-63
2023/02/24 07:21:22;;;;;;;3.93;0.97;;;4.50;99.90;;;;;;5079074;28;20455;-59
2023/02/24 07:23:55;;;;;;;1.30;1.00;;;4.50;99.90;;;;;;5079876;28;20479;-63
2023/02/24 07:26:26;;;;;;;1.83;0.93;;;4.60;99.90;;;;;;5079531;28;20447;-64
2023/02/24 07:28:55;;;;;;;2.70;1.53;;;4.60;99.90;;;;;;5079534;28;20455;-63
2023/02/24 07:31:24;;;;;;;3.47;1.10;;;4.60;99.90;;;;;;5079627;28;20412;-63
2023/02/24 07:33:55;;;;;;;1.97;1.40;;;4.60;99.90;;;;;;5078025;28;20457;-64
2023/02/24 07:36:28;;;;;;;2.43;1.30;;;4.50;99.90;;;;;;5079091;28;20411;-64
2023/02/24 07:38:57;;;;;;;6.43;1.27;;;4.50;99.90;;;;;;5077702;28;20549;-64
2023/02/24 07:41:26;;;;;;;3.63;1.83;;;4.40;99.90;;;;;;5077393;28;20490;-62
2023/02/24 07:43:54;;;;;;;1.40;0.93;;;4.40;99.90;;;;;;5077555;28;20502;-63
2023/02/24 07:46:24;;;;;;;4.30;1.37;;;4.40;99.90;;;;;;5076592;28;20475;-65
2023/02/24 07:48:54;;;;;;;1.97;1.23;;;4.30;99.90;;;;;;5076616;28;21042;-65
2023/02/24 07:51:24;;;;;;;3.83;1.23;;;4.30;99.90;;;;;;5076837;28;20471;-63
2023/02/24 07:53:56;;;;;;;1.70;1.13;;;4.30;99.90;;;;;;5077284;28;20470;-62
2023/02/24 07:56:27;;;;;;;9.03;1.80;;;4.40;99.90;;;;;;5077619;28;20454;-64
2023/02/24 07:58:59;;;;;;;2.70;1.47;;;4.40;99.90;;;;;;5077056;28;20463;-64
2023/02/24 08:01:27;;;;;;;4.97;1.10;;;4.50;99.90;;;;;;5075730;28;20515;-64
2023/02/24 08:03:56;;;;;;;4.37;1.50;;;4.50;99.90;;;;;;5075933;28;20439;-64
2023/02/24 08:06:30;;;;;;;2.43;0.87;;;4.50;99.90;;;;;;5076484;28;20450;-65
2023/02/24 08:09:15;;;;;;;14.13;1.30;;;4.50;99.90;;;;;;5076257;28;20466;-64
2023/02/24 08:11:45;;;;;;;3.20;0.73;;;4.60;99.90;;;;;;5076344;28;20514;-65
2023/02/24 08:14:13;;;;;;;1.87;1.47;;;4.70;99.90;;;;;;5076203;28;20462;-65
2023/02/24 08:16:41;;;;;;;4.10;1.30;;;4.70;99.90;;;;;;5076868;28;20445;-65
2023/02/24 08:19:12;;;;;;;6.13;1.27;;;4.80;99.90;;;;;;5076850;28;20460;-61
2023/02/24 08:21:46;;;;;;;10.60;2.13;;;4.80;99.90;;;;;;5076470;28;20415;-70
2023/02/24 08:24:16;;;;;;;3.70;1.37;;;4.80;99.90;;;;;;5077083;28;20443;-64
2023/02/24 08:26:47;;;;;;;5.13;1.73;;;4.80;99.90;;;;;;5076813;28;20428;-65
2023/02/24 08:29:19;;;;;;;5.13;1.70;;;4.80;99.90;;;;;;5068311;28;20748;-64
2023/02/24 08:31:46;;;;;;;4.27;1.23;;;4.80;99.90;;;;;;5075957;28;20542;-62
2023/02/24 08:34:18;;;;;;;3.43;2.63;;;4.90;99.90;;;;;;5076393;28;20460;-65
2023/02/24 08:36:47;;;;;;;4.60;1.00;;;5.00;99.90;;;;;;5075940;28;20495;-62
2023/02/24 08:39:15;;;;;;;3.00;1.90;;;5.00;99.90;;;;;;5075531;28;20511;-64
2023/02/24 08:41:50;;;;;;;8.33;1.37;;;5.10;99.90;;;;;;5074764;28;20475;-65
2023/02/24 08:44:20;;;;;;;12.67;2.10;;;5.00;99.90;;;;;;5074858;28;20450;-62
2023/02/24 08:46:54;;;;;;;3.93;3.13;;;5.10;99.90;;;;;;5075072;28;20439;-64
2023/02/24 08:49:23;;;;;;;4.13;1.87;;;5.00;99.90;;;;;;5075716;28;20475;-65
2023/02/24 08:51:53;;;;;;;8.37;4.80;;;5.00;99.90;;;;;;5075486;28;20443;-63
2023/02/24 08:54:25;;;;;;;1.53;1.43;;;5.20;99.90;;;;;;5075669;28;20423;-65
2023/02/24 08:57:06;;;;;;;3.97;2.40;;;5.20;99.90;;;;;;5075368;28;20713;-65
2023/02/24 08:59:42;;;;;;;4.03;1.77;;;5.40;99.90;;;;;;5074818;28;20464;-66
2023/02/24 09:02:18;;;;;;;3.20;1.77;;;5.50;99.90;;;;;;5075347;28;20493;-66
2023/02/24 09:04:46;;;;;;;3.50;1.30;;;5.50;99.90;;;;;;5074730;28;20509;-65
2023/02/24 09:07:15;;;;;;;2.50;1.37;;;5.60;99.90;;;;;;5075566;28;20477;-66
2023/02/24 09:09:42;;;;;;;9.43;3.60;;;5.60;99.90;;;;;;5075836;28;20471;-66
2023/02/24 09:12:20;;;;;;;11.63;5.93;;;5.70;99.90;;;;;;5076567;28;20427;-67
2023/02/24 09:14:48;;;;;;;8.80;2.90;;;5.80;99.90;;;;;;5071181;28;20450;-63
2023/02/24 09:17:19;;;;;;;7.10;2.70;;;5.80;99.90;;;;;;5069562;28;20446;-68
2023/02/24 09:22:39;;;;;;;7.20;1.90;;;5.70;99.90;;;;;;5066385;28;20496;-67
2023/02/24 09:25:20;;;;;;;2.80;1.30;;;5.60;99.90;;;;;;5064937;28;20470;-66
2023/02/24 09:27:53;;;;;;;4.10;2.10;;;5.70;99.90;;;;;;5064038;28;20474;-64
2023/02/24 09:30:37;;;;;;;10.00;3.07;;;5.70;99.90;;;;;;5064770;28;20431;-62
2023/02/24 09:36:09;;;;;;;14.80;3.80;;;5.60;99.90;;;;;;5068697;28;20446;-65
2023/02/24 09:44:51;;;;;;;5.07;2.17;;;5.40;99.90;;;;;;5149489;27;20494;-65
2023/02/24 09:47:29;;;;;;;1.97;1.40;;;5.30;99.90;;;;;;5143586;27;20486;-66
2023/02/24 09:50:03;;;;;;;2.33;1.47;;;5.40;99.90;;;;;;5127234;28;20495;-64
2023/02/24 09:52:40;;;;;;;3.37;2.03;;;5.40;99.90;;;;;;5126051;28;20446;-65
2023/02/24 09:55:24;;;;;;;5.13;1.30;;;5.50;99.90;;;;;;5125818;28;20479;-65
2023/02/24 10:01:19;;;;;;;5.63;2.03;;;5.60;99.90;;;;;;5124836;28;20487;-65
2023/02/24 10:03:52;;;;;;;7.20;1.90;;;5.70;99.90;;;;;;5123887;28;20497;-65
2023/02/24 10:06:22;;;;;;;5.30;1.27;;;5.70;99.90;;;;;;5126582;28;20856;-66
2023/02/24 10:08:54;;;;;;;4.57;1.83;;;5.70;99.90;;;;;;5125498;28;20457;-66
2023/02/24 10:11:31;;;;;;;1.73;1.33;;;5.80;99.90;;;;;;5124967;28;20437;-64
2023/02/24 10:14:04;;;;;;;1.20;1.07;;;5.80;99.90;;;;;;5123699;28;20440;-64
2023/02/24 10:16:41;;;;;;;1.50;0.90;;;5.80;99.90;;;;;;5124797;28;20456;-65
2023/02/24 10:19:19;;;;;;;2.30;1.17;;;5.80;99.90;;;;;;5126499;28;20457;-64
2023/02/24 10:22:01;;;;;;;3.13;1.67;;;5.80;99.90;;;;;;5127273;28;20439;-64
2023/02/24 10:24:35;;;;;;;3.87;1.77;;;5.70;99.90;;;;;;5126234;28;20421;-66
2023/02/24 10:27:13;;;;;;;6.20;2.60;;;5.80;99.90;;;;;;5126564;28;20928;-64
2023/02/24 10:29:54;;;;;;;5.57;1.93;;;5.80;99.90;;;;;;5125356;28;20466;-65
2023/02/24 10:32:32;;;;;;;6.30;1.13;;;5.90;99.90;;;;;;5122661;28;20440;-65
2023/02/24 10:35:00;;;;;;;7.00;2.40;;;6.00;99.90;;;;;;5121994;28;20467;-65
2023/02/24 10:37:28;;;;;;;1.90;1.27;;;6.10;99.90;;;;;;5122186;28;20987;-64
2023/02/24 10:39:58;;;;;;;2.50;0.97;;;6.20;99.90;;;;;;5121973;28;20491;-65
2023/02/24 10:42:30;;;;;;;1.83;1.10;;;6.10;99.90;;;;;;5123835;28;20444;-65
2023/02/24 10:45:13;;;;;;;6.83;1.43;;;6.10;99.90;;;;;;5123964;28;20437;-65
2023/02/24 10:47:43;;;;;;;1.50;1.00;;;6.00;99.90;;;;;;5123587;28;20456;-65
2023/02/24 10:50:22;;;;;;;2.40;1.40;;;5.90;99.90;;;;;;5126596;28;20421;-64
2023/02/24 10:53:09;;;;;;;3.00;0.80;;;5.90;99.90;;;;;;5115171;28;20413;-64
2023/02/24 10:55:53;;;;;;;5.60;1.30;;;5.80;99.90;;;;;;5113927;28;20480;-64
2023/02/24 10:58:36;;;;;;;2.47;0.80;;;5.70;99.90;;;;;;5115569;28;20481;-65
2023/02/24 11:01:19;;;;;;;1.20;0.77;;;5.70;99.90;;;;;;5116509;28;20470;-65
2023/02/24 11:04:21;;;;;;;1.20;0.70;;;5.50;99.90;;;;;;5116598;28;20472;-66
2023/02/24 11:06:56;;;;;;;4.03;1.10;;;5.40;99.90;;;;;;5117452;28;20458;-65
2023/02/24 11:09:34;;;;;;;4.90;0.90;;;5.30;99.90;;;;;;5113538;28;20548;-65
2023/02/24 11:17:55;;;;;;;3.73;1.50;;;5.00;99.90;;;;;;5109928;28;20448;-65
2023/02/24 11:20:29;;;;;;;1.50;0.80;;;4.80;99.90;;;;;;5107282;28;20477;-64
2023/02/24 11:22:57;;;;;;;1.53;1.17;;;4.80;99.90;;;;;;5142428;27;20467;-66
2023/02/24 11:25:30;;;;;;;1.40;1.30;;;4.60;99.90;;;;;;5108790;28;20441;-65
2023/02/24 11:27:57;;;;;;;1.87;1.00;;;4.60;99.90;;;;;;5114853;28;20612;-65
2023/02/24 11:30:37;;;;;;;5.70;2.10;;;4.50;99.90;;;;;;5130518;28;20445;-66
2023/02/24 11:33:17;;;;;;;5.50;2.10;;;4.40;99.90;;;;;;5130661;27;20517;-65
2023/02/24 11:35:54;;;;;;;9.50;2.50;;;4.30;99.90;;;;;;5128533;28;20560;-65
2023/02/24 11:38:36;;;;;;;5.07;2.37;;;4.30;99.90;;;;;;5108093;28;20506;-65
2023/02/24 11:41:13;;;;;;;2.53;2.33;;;4.30;99.90;;;;;;5108961;28;20485;-65
2023/02/24 11:43:45;;;;;;;4.33;1.27;;;4.30;99.90;;;;;;5109382;28;20880;-65
2023/02/24 11:46:17;;;;;;;3.27;1.60;;;4.20;99.90;;;;;;5111194;28;20441;-67
2023/02/24 11:48:55;;;;;;;1.80;1.70;;;4.10;99.90;;;;;;5108712;28;20453;-65
2023/02/24 11:51:27;;;;;;;2.83;1.30;;;4.10;99.90;;;;;;5109664;28;20444;-66
2023/02/24 11:54:01;;;;;;;1.33;1.23;;;4.10;99.90;;;;;;5108946;28;20429;-66
2023/02/24 11:56:33;;;;;;;10.70;3.67;;;4.10;99.90;;;;;;5109157;28;20432;-65
2023/02/24 11:59:06;;;;;;;2.17;1.70;;;4.10;99.90;;;;;;5110364;28;20840;-66
2023/02/24 12:01:41;;;;;;;2.57;1.43;;;4.10;99.90;;;;;;5109558;28;20461;-65
2023/02/24 12:04:17;;;;;;;1.33;1.23;;;4.10;99.90;;;;;;5107932;28;20456;-66
2023/02/24 12:06:55;;;;;;;3.77;1.73;;;4.20;99.90;;;;;;5109132;28;20448;-66
2023/02/24 12:09:41;;;;;;;2.17;1.47;;;4.30;99.90;;;;;;5108351;28;20525;-65
2023/02/24 12:12:13;;;;;;;3.40;1.30;;;4.30;99.90;;;;;;5108637;28;20438;-65
2023/02/24 12:14:46;;;;;;;2.53;1.10;;;4.40;99.90;;;;;;5110931;28;20474;-64
2023/02/24 12:17:19;;;;;;;2.10;1.17;;;4.30;99.90;;;;;;5111627;28;20468;-65
2023/02/24 12:20:04;;;;;;;3.93;2.10;;;4.30;99.90;;;;;;5113083;28;20455;-66
2023/02/24 12:22:43;;;;;;;12.30;1.73;;;4.20;99.90;;;;;;5111687;28;20439;-66
2023/02/24 12:25:13;;;;;;;3.67;2.80;;;4.20;99.90;;;;;;5111570;28;20418;-66
2023/02/24 12:27:53;;;;;;;30.53;9.90;;;4.20;99.90;;;;;;5109734;28;20532;-66
2023/02/24 12:30:48;;;;;;;4.40;2.00;;;4.20;99.90;;;;;;5109537;28;20429;-65
2023/02/24 12:33:31;;;;;;;11.57;1.77;;;4.10;99.90;;;;;;5109760;28;20428;-66
2023/02/24 12:36:11;;;;;;;1.03;0.90;;;4.10;99.90;;;;;;5112179;28;20475;-64
2023/02/24 12:38:49;;;;;;;2.57;1.30;;;4.00;99.90;;;;;;5111008;28;20453;-65
2023/02/24 12:41:37;;;;;;;1.10;0.80;;;4.00;99.90;;;;;;5109858;28;20484;-65
2023/02/24 12:44:16;;;;;;;1.90;1.70;;;4.00;99.90;;;;;;5111739;28;20563;-64
2023/02/24 12:46:45;;;;;;;3.00;1.23;;;3.90;99.90;;;;;;5112909;28;20431;-65
2023/02/24 12:49:32;;;;;;;1.60;1.50;;;3.90;99.90;;;;;;5111797;28;20487;-65
2023/02/24 12:52:14;;;;;;;2.17;0.93;;;3.90;99.90;;;;;;5111686;28;20493;-66
2023/02/24 12:54:47;;;;;;;1.80;1.60;;;4.00;99.90;;;;;;5110662;28;20499;-64
2023/02/24 12:57:26;;;;;;;2.90;1.63;;;4.00;99.90;;;;;;5111222;28;20461;-65
2023/02/24 12:59:53;;;;;;;9.73;1.30;;;4.10;99.90;;;;;;5109904;28;20495;-65
2023/02/24 13:02:31;;;;;;;6.23;3.97;;;4.10;99.90;;;;;;5110198;28;20461;-65
2023/02/24 13:05:09;;;;;;;2.13;1.30;;;4.10;99.90;;;;;;5111941;28;20445;-65
2023/02/24 13:07:57;;;;;;;2.17;1.37;;;4.10;99.90;;;;;;5111959;28;20457;-64
2023/02/24 13:10:42;;;;;;;1.23;1.13;;;4.00;99.90;;;;;;5110882;28;20453;-65
2023/02/24 13:13:15;;;;;;;1.33;1.10;;;3.90;99.90;;;;;;5113182;28;20437;-64
2023/02/24 13:15:54;;;;;;;2.00;1.50;;;3.90;99.90;;;;;;5112674;28;20446;-66
2023/02/24 13:18:26;;;;;;;3.13;1.57;;;3.90;99.90;;;;;;5112736;28;20449;-65
2023/02/24 13:21:07;;;;;;;7.87;1.97;;;4.00;99.90;;;;;;5113029;28;20481;-65
2023/02/24 13:23:36;;;;;;;3.63;1.10;;;4.00;99.90;;;;;;5114465;28;20467;-64
2023/02/24 13:26:04;;;;;;;7.13;1.77;;;4.00;99.90;;;;;;5114291;28;20448;-65
2023/02/24 13:28:37;;;;;;;4.13;1.73;;;4.00;99.90;;;;;;5113972;28;20453;-64
2023/02/24 13:31:09;;;;;;;1.63;1.37;;;4.00;99.90;;;;;;5114608;28;20468;-65
2023/02/24 13:33:38;;;;;;;2.60;1.13;;;4.00;99.90;;;;;;5115729;28;20417;-64
2023/02/24 13:36:12;;;;;;;1.90;1.37;;;4.00;99.90;;;;;;5115982;28;20445;-65
2023/02/24 13:38:47;;;;;;;2.73;2.07;;;3.90;99.90;;;;;;5147757;28;20491;-65
2023/02/24 13:41:36;;;;;;;3.00;1.70;;;4.00;99.90;;;;;;5114600;28;20472;-65
2023/02/24 13:44:28;;;;;;;3.47;2.10;;;4.00;99.90;;;;;;5115508;28;20408;-66
2023/02/24 13:47:24;;;;;;;3.60;1.80;;;3.90;99.90;;;;;;5115999;28;20451;-65
2023/02/24 13:50:11;;;;;;;1.50;1.33;;;3.90;99.90;;;;;;5117080;28;20533;-65
2023/02/24 13:52:58;;;;;;;1.30;0.93;;;3.80;99.90;;;;;;5117053;28;20413;-64
2023/02/24 13:55:46;;;;;;;2.30;1.27;;;3.80;99.90;;;;;;5113813;28;20457;-65
2023/02/24 13:58:31;;;;;;;1.37;1.27;;;3.80;99.90;;;;;;5112855;28;20481;-66